Time;durP1;ratioP1;P1;durP2;ratioP2;P2;SDS_P1;SDS_P2;PMS_P1;PMS_P2;Temp;Humidity;BMP_temperature;BMP_pressure;BME280_temperature;BME280_humidity;BME280_pressure;Samples;Min_cycle;Max_cycle;Signal;HPM_P1;HPM_P2
2023/10/06 00:02:55;;;;;;;5.25;1.63;;;;;;;16.60;100.00;101564.66;5028019;28;20109;-67
2023/10/06 00:05:23;;;;;;;2.58;1.30;;;;;;;16.57;100.00;101571.63;5031638;28;20124;-68
2023/10/06 00:07:50;;;;;;;1.88;1.30;;;;;;;16.58;100.00;101565.03;5029833;28;20474;-68
2023/10/06 00:10:20;;;;;;;3.42;1.58;;;;;;;16.38;100.00;101554.66;5029435;28;20036;-68
2023/10/06 00:12:54;;;;;;;1.90;1.30;;;;;;;16.51;100.00;101550.59;5029567;28;20075;-67
2023/10/06 00:15:26;;;;;;;4.07;1.52;;;;;;;16.58;100.00;101553.38;5028145;28;20510;-68
2023/10/06 00:17:56;;;;;;;4.35;1.75;;;;;;;16.62;100.00;101559.63;5029896;28;20042;-67
2023/10/06 00:20:31;;;;;;;3.67;1.38;;;;;;;16.70;100.00;101559.34;5028005;28;20038;-67
2023/10/06 00:23:02;;;;;;;3.38;1.60;;;;;;;16.75;100.00;101563.66;5013258;28;20030;-68
2023/10/06 00:25:28;;;;;;;;;;;;;;;16.66;100.00;101561.25;5029465;28;20044;-68
2023/10/06 00:27:53;;;;;;;3.35;1.38;;;;;;;16.64;100.00;101560.03;5030084;28;19921;-68
2023/10/06 00:30:20;;;;;;;5.00;1.50;;;;;;;16.57;100.00;101555.31;5025178;28;20117;-67
2023/10/06 00:32:49;;;;;;;2.90;1.65;;;;;;;16.66;100.00;101566.69;5025411;28;20033;-68
2023/10/06 00:35:17;;;;;;;3.75;2.00;;;;;;;16.58;100.00;101556.09;5012185;28;20022;-67
2023/10/06 00:37:43;;;;;;;7.05;2.33;;;;;;;16.56;100.00;101551.03;5030381;28;20037;-67
2023/10/06 00:40:19;;;;;;;2.60;1.58;;;;;;;16.61;100.00;101556.13;5026621;28;20080;-68
2023/10/06 00:42:53;;;;;;;4.68;1.73;;;;;;;16.70;100.00;101553.91;5024640;28;20590;-68
2023/10/06 00:45:24;;;;;;;7.22;2.55;;;;;;;16.56;100.00;101544.81;5030388;28;20041;-68
2023/10/06 00:47:53;;;;;;;4.55;2.33;;;;;;;16.59;100.00;101544.84;5011839;28;20030;-68
2023/10/06 00:50:24;;;;;;;4.68;2.78;;;;;;;16.65;100.00;101537.13;5029663;28;20029;-68
2023/10/06 00:52:50;;;;;;;3.35;2.00;;;;;;;16.67;100.00;101527.44;5026873;28;20052;-68
2023/10/06 00:55:17;;;;;;;5.25;2.45;;;;;;;16.59;100.00;101542.13;5029786;28;20040;-67
2023/10/06 00:57:49;;;;;;;4.88;2.42;;;;;;;16.61;100.00;101528.94;5029819;28;20183;-68
2023/10/06 01:00:22;;;;;;;3.90;2.10;;;;;;;16.63;100.00;101540.22;5029139;28;20048;-68
2023/10/06 01:02:49;;;;;;;4.13;2.53;;;;;;;16.70;100.00;101534.88;5027935;28;20033;-68
2023/10/06 01:05:16;;;;;;;6.10;3.13;;;;;;;16.74;100.00;101532.16;5029486;28;20452;-68
2023/10/06 01:07:47;;;;;;;4.95;2.70;;;;;;;16.68;100.00;101544.53;5011451;28;20037;-67
2023/10/06 01:10:27;;;;;;;;;;;;;;;16.67;100.00;101542.97;5030422;28;20034;-67
2023/10/06 01:12:53;;;;;;;4.05;2.30;;;;;;;16.72;100.00;101534.47;5042049;28;20004;-68
2023/10/06 01:15:20;;;;;;;12.82;3.50;;;;;;;16.80;100.00;101525.22;5031585;28;20027;-68
2023/10/06 01:17:47;;;;;;;5.05;2.60;;;;;;;16.77;100.00;101525.97;5030144;28;20187;-67
2023/10/06 01:20:29;;;;;;;9.05;3.17;;;;;;;16.81;100.00;101518.63;5030205;28;20029;-67
2023/10/06 01:22:56;;;;;;;7.63;2.75;;;;;;;16.74;100.00;101524.78;5029409;28;20576;-68
2023/10/06 01:25:24;;;;;;;5.28;2.63;;;;;;;16.68;100.00;101520.06;5025776;28;20172;-67
2023/10/06 01:27:50;;;;;;;5.30;2.78;;;;;;;16.59;100.00;101519.59;5029152;28;20494;-68
2023/10/06 01:32:43;;;;;;;6.13;3.13;;;;;;;16.57;100.00;101530.06;5028392;28;20075;-66
2023/10/06 01:35:12;;;;;;;5.32;2.72;;;;;;;16.65;100.00;101515.34;5027806;28;20092;-66
2023/10/06 01:37:45;;;;;;;4.75;2.83;;;;;;;16.63;100.00;101518.44;5027284;28;20033;-67
2023/10/06 01:40:45;;;;;;;6.03;2.90;;;;;;;16.64;100.00;101511.09;5027451;28;20079;-67
2023/10/06 01:43:10;;;;;;;5.20;3.17;;;;;;;16.67;100.00;101527.44;5024919;28;20046;-68
2023/10/06 01:45:36;;;;;;;5.25;2.85;;;;;;;16.64;100.00;101527.41;5029162;28;20043;-67
2023/10/06 01:50:41;;;;;;;5.85;2.83;;;;;;;16.70;100.00;101515.81;5025427;28;20038;-68
2023/10/06 01:53:07;;;;;;;5.78;3.38;;;;;;;16.76;100.00;101508.09;5007565;28;20022;-67
2023/10/06 01:55:38;;;;;;;7.97;3.50;;;;;;;16.78;100.00;101503.06;5026824;28;20087;-68
2023/10/06 01:58:07;;;;;;;6.07;3.30;;;;;;;16.74;100.00;101491.38;5011691;28;20108;-67
2023/10/06 02:00:36;;;;;;;6.65;3.40;;;;;;;16.71;100.00;101498.31;5026266;28;20036;-67
2023/10/06 02:03:03;;;;;;;7.68;3.17;;;;;;;16.72;100.00;101504.56;5024057;28;20041;-68
2023/10/06 02:05:29;;;;;;;5.05;3.28;;;;;;;16.69;100.00;101495.19;5026660;28;20045;-68
2023/10/06 02:08:00;;;;;;;7.68;3.92;;;;;;;16.65;100.00;101486.22;5030023;28;20100;-67
2023/10/06 02:10:26;;;;;;;;;;;;;;;16.62;100.00;101483.47;5026785;28;20025;-67
2023/10/06 02:12:52;;;;;;;9.05;3.83;;;;;;;16.64;100.00;101481.16;5024827;28;20396;-68
2023/10/06 02:15:18;;;;;;;9.23;4.05;;;;;;;16.53;100.00;101472.91;5028896;28;20022;-68
2023/10/06 02:17:44;;;;;;;6.82;3.70;;;;;;;16.55;100.00;101475.25;5028877;28;20033;-68
2023/10/06 02:22:52;;;;;;;8.85;3.60;;;;;;;16.54;100.00;101482.63;5043666;28;20525;-66
2023/10/06 02:25:18;;;;;;;9.00;3.35;;;;;;;16.52;100.00;101476.78;5023459;28;20037;-66
2023/10/06 02:27:47;;;;;;;10.52;3.92;;;;;;;16.61;100.00;101477.25;5022669;28;20038;-66
2023/10/06 02:30:18;;;;;;;8.35;3.40;;;;;;;16.60;100.00;101483.06;5021230;28;20033;-66
2023/10/06 02:32:45;;;;;;;11.18;3.75;;;;;;;16.58;100.00;101485.38;5020558;28;20034;-66
2023/10/06 02:35:12;;;;;;;8.02;3.55;;;;;;;16.57;100.00;101478.38;5024306;28;20021;-66
2023/10/06 02:37:40;;;;;;;8.63;4.30;;;;;;;16.59;100.00;101468.69;5021258;28;20021;-65
2023/10/06 02:40:13;;;;;;;11.00;3.72;;;;;;;16.54;100.00;101470.97;5036960;28;20049;-67
2023/10/06 02:42:44;;;;;;;8.15;3.88;;;;;;;16.58;99.80;101466.34;5027818;28;20041;-67
2023/10/06 02:45:16;;;;;;;5.80;3.13;;;;;;;16.55;99.84;101458.94;5025097;28;20117;-67
2023/10/06 02:47:42;;;;;;;6.97;3.60;;;;;;;16.54;99.73;101460.09;5024410;28;20037;-66
2023/10/06 02:50:17;;;;;;;6.53;3.38;;;;;;;16.47;99.47;101457.28;5028645;28;20032;-66
2023/10/06 02:52:46;;;;;;;5.35;3.22;;;;;;;16.47;99.96;101446.41;5043537;28;20030;-66
2023/10/06 02:55:14;;;;;;;8.27;3.47;;;;;;;16.48;99.87;101439.78;5028803;28;20114;-67
2023/10/06 02:57:50;;;;;;;7.80;3.30;;;;;;;16.51;99.57;101445.28;5026613;28;20696;-67
2023/10/06 03:03:02;;;;;;;9.77;3.63;;;;;;;16.49;99.56;101457.72;5023750;28;20485;-67
2023/10/06 03:05:38;;;;;;;6.38;3.08;;;;;;;16.52;98.75;101455.03;5030558;28;20396;-67
2023/10/06 03:08:11;;;;;;;9.52;3.25;;;;;;;16.51;98.88;101458.13;5028979;28;20036;-67
2023/10/06 03:10:42;;;;;;;8.98;3.85;;;;;;;16.49;98.68;101450.31;5047827;28;20029;-67
2023/10/06 03:13:15;;;;;;;7.90;3.42;;;;;;;16.48;98.40;101446.06;5027508;28;20040;-67
2023/10/06 03:15:45;;;;;;;5.43;3.50;;;;;;;16.48;98.47;101447.94;5028993;28;20037;-66
2023/10/06 03:18:16;;;;;;;8.27;3.60;;;;;;;16.47;98.37;101441.75;5032175;28;20022;-67
2023/10/06 03:20:59;;;;;;;6.20;3.30;;;;;;;16.46;98.18;101450.25;5026207;28;20452;-66
2023/10/06 03:23:38;;;;;;;6.95;3.83;;;;;;;16.43;98.14;101446.38;5026166;28;20037;-66
2023/10/06 03:26:12;;;;;;;6.28;3.45;;;;;;;16.47;97.61;101454.56;5027520;28;20378;-67
2023/10/06 03:28:42;;;;;;;11.77;4.10;;;;;;;16.37;97.67;101452.53;5027761;28;20120;-67
2023/10/06 03:33:50;;;;;;;9.73;4.15;;;;;;;16.43;97.87;101446.38;5030322;28;20033;-66
2023/10/06 03:36:36;;;;;;;10.68;4.43;;;;;;;16.51;97.43;101441.81;5015647;28;20052;-66
2023/10/06 03:39:07;;;;;;;8.88;4.57;;;;;;;16.41;97.78;101437.03;5030077;28;20114;-67
2023/10/06 03:41:37;;;;;;;9.10;4.00;;;;;;;16.47;97.29;101440.97;5028281;28;20183;-67
2023/10/06 03:44:06;;;;;;;8.07;3.90;;;;;;;16.50;97.04;101427.44;5026974;28;20033;-66
2023/10/06 03:46:38;;;;;;;10.68;3.85;;;;;;;16.51;97.29;101441.81;5031301;28;20565;-67
2023/10/06 03:49:08;;;;;;;9.43;4.38;;;;;;;16.50;96.61;101434.78;5029737;28;20564;-68
2023/10/06 03:51:37;;;;;;;8.55;4.50;;;;;;;16.44;96.63;101423.44;5022427;28;20041;-67
2023/10/06 03:54:04;;;;;;;11.68;4.35;;;;;;;16.39;96.70;101423.03;5033969;28;20034;-67
2023/10/06 03:56:32;;;;;;;5.65;3.60;;;;;;;16.37;96.91;101415.25;5031113;28;20505;-67
2023/10/06 03:59:00;;;;;;;6.95;3.85;;;;;;;16.46;96.84;101423.84;5030489;28;20104;-67
2023/10/06 04:01:31;;;;;;;8.10;4.15;;;;;;;16.50;96.38;101418.47;5027432;28;20083;-67
2023/10/06 04:03:58;;;;;;;;;;;;;;;16.48;96.15;101427.00;5025913;28;20037;-67
2023/10/06 04:06:26;;;;;;;9.73;4.00;;;;;;;16.50;95.77;101413.03;5030048;28;19919;-68
2023/10/06 04:08:53;;;;;;;7.72;4.30;;;;;;;16.54;95.73;101419.28;5028059;28;20707;-67
2023/10/06 04:11:19;;;;;;;11.15;4.72;;;;;;;16.40;96.16;101424.56;5026853;28;20055;-68
2023/10/06 04:13:45;;;;;;;11.55;4.75;;;;;;;16.35;96.49;101433.06;5031217;28;20040;-68
2023/10/06 04:16:14;;;;;;;13.73;4.63;;;;;;;16.37;96.23;101420.69;5027617;28;20042;-67
2023/10/06 04:18:39;;;;;;;9.52;4.50;;;;;;;16.40;95.92;101419.91;5028518;28;20053;-68
2023/10/06 04:21:11;;;;;;;8.38;4.15;;;;;;;16.44;95.62;101414.50;5029040;28;20510;-67
2023/10/06 04:23:41;;;;;;;8.13;3.88;;;;;;;16.42;95.28;101403.22;5029125;28;20029;-68
2023/10/06 04:26:11;;;;;;;12.40;4.60;;;;;;;16.40;95.89;101411.75;5023125;28;20053;-68
2023/10/06 04:28:37;;;;;;;9.15;4.35;;;;;;;16.37;95.77;101403.59;5031889;28;20037;-67
2023/10/06 04:31:05;;;;;;;9.40;4.50;;;;;;;16.41;95.59;101409.84;5025362;28;20039;-67
2023/10/06 04:33:31;;;;;;;10.30;4.00;;;;;;;16.22;96.16;101398.00;5030539;28;20129;-67
2023/10/06 04:35:59;;;;;;;9.38;4.30;;;;;;;16.28;95.79;101388.34;5027625;28;20105;-67
2023/10/06 04:38:29;;;;;;;7.80;4.13;;;;;;;16.40;95.59;101381.84;5028051;28;20043;-68
2023/10/06 04:40:56;;;;;;;5.90;4.13;;;;;;;16.35;95.41;101379.50;5023080;28;20045;-67
2023/10/06 04:43:22;;;;;;;8.80;3.97;;;;;;;16.39;95.06;101369.44;5028354;28;20753;-68
2023/10/06 04:45:48;;;;;;;7.72;3.75;;;;;;;16.47;94.69;101360.19;5026529;28;20044;-68
2023/10/06 04:48:15;;;;;;;8.63;3.70;;;;;;;16.36;94.78;101370.16;5029484;28;20022;-67
2023/10/06 04:50:44;;;;;;;6.22;3.75;;;;;;;16.39;95.12;101355.03;5026883;28;20057;-68
2023/10/06 04:53:11;;;;;;;8.32;4.25;;;;;;;16.36;95.04;101359.28;5033994;28;20037;-67
2023/10/06 04:55:37;;;;;;;12.38;3.65;;;;;;;16.47;94.39;101359.38;5025958;28;20394;-65
2023/10/06 04:58:13;;;;;;;7.70;3.92;;;;;;;16.47;94.06;101362.09;5028705;28;20045;-67
2023/10/06 05:00:39;;;;;;;6.28;2.92;;;;;;;16.44;94.88;101360.91;5026509;28;20441;-67
2023/10/06 05:03:06;;;;;;;6.60;3.67;;;;;;;16.47;94.44;101359.38;5024197;28;20040;-67
2023/10/06 05:05:40;;;;;;;6.72;3.45;;;;;;;16.33;95.06;101351.91;5020728;28;20532;-67
2023/10/06 05:08:09;;;;;;;5.47;3.28;;;;;;;16.35;95.41;101354.22;5021518;28;20458;-67
2023/10/06 05:10:36;;;;;;;8.85;3.17;;;;;;;16.31;95.35;101346.06;5018543;28;20076;-67
2023/10/06 05:13:05;;;;;;;6.43;3.05;;;;;;;16.29;95.03;101342.94;5025152;28;20045;-67
2023/10/06 05:15:31;;;;;;;8.45;3.10;;;;;;;16.34;95.92;101341.81;5029042;28;20038;-67
2023/10/06 05:17:58;;;;;;;9.68;2.80;;;;;;;16.41;95.33;101339.13;5028960;28;20091;-68
2023/10/06 05:20:29;;;;;;;8.38;3.78;;;;;;;16.30;95.52;101349.91;5029983;28;20444;-67
2023/10/06 05:23:14;;;;;;;6.18;2.80;;;;;;;16.34;95.15;101339.09;5027693;28;20033;-67
2023/10/06 05:25:40;;;;;;;5.95;2.78;;;;;;;16.40;95.02;101348.44;5025364;28;20068;-68
2023/10/06 05:28:10;;;;;;;6.30;2.90;;;;;;;16.41;94.63;101342.66;5024168;28;20025;-67
2023/10/06 05:30:37;;;;;;;6.03;3.13;;;;;;;16.38;94.91;101339.88;5029036;28;20406;-68
2023/10/06 05:33:03;;;;;;;8.25;2.67;;;;;;;16.38;94.71;101337.16;5020734;28;20271;-68
2023/10/06 05:35:42;;;;;;;6.57;2.67;;;;;;;16.42;94.72;101343.41;5039814;28;20091;-67
2023/10/06 05:38:13;;;;;;;4.32;2.42;;;;;;;16.49;94.51;101329.91;5027996;28;20120;-67
2023/10/06 05:40:50;;;;;;;4.95;2.30;;;;;;;16.49;93.94;101324.47;5028613;28;20452;-67
2023/10/06 05:43:16;;;;;;;7.57;3.00;;;;;;;16.53;93.63;101323.31;5024016;28;20037;-67
2023/10/06 05:45:52;;;;;;;6.60;2.28;;;;;;;16.53;93.41;101334.19;5023864;28;20030;-67
2023/10/06 05:48:21;;;;;;;6.03;2.85;;;;;;;16.54;93.59;101343.16;5021481;28;20116;-68
2023/10/06 05:50:48;;;;;;;2.78;1.73;;;;;;;16.53;94.03;101334.19;5023876;28;20037;-67
2023/10/06 05:53:22;;;;;;;8.57;2.50;;;;;;;16.53;93.70;101341.59;5025253;28;20462;-67
2023/10/06 05:55:49;;;;;;;3.50;1.92;;;;;;;16.55;93.71;101344.72;5025539;28;20044;-67
2023/10/06 05:58:19;;;;;;;4.78;2.30;;;;;;;16.63;93.33;101335.44;5027271;28;20033;-67
2023/10/06 06:00:52;;;;;;;6.63;2.17;;;;;;;16.66;93.10;101337.41;5028531;28;20033;-67
2023/10/06 06:03:23;;;;;;;4.28;2.35;;;;;;;16.57;92.69;101329.56;5026507;28;20457;-67
2023/10/06 06:05:52;;;;;;;5.57;2.35;;;;;;;16.52;93.32;101329.94;5023296;28;20041;-67
2023/10/06 06:08:18;;;;;;;8.73;2.10;;;;;;;16.49;93.42;101321.75;5026311;28;20065;-67
2023/10/06 06:10:47;;;;;;;5.10;1.90;;;;;;;16.45;93.25;101316.25;5028478;28;20055;-67
2023/10/06 06:13:16;;;;;;;4.88;2.20;;;;;;;16.58;92.46;101305.88;5029752;28;20033;-68
2023/10/06 06:15:41;;;;;;;4.05;2.20;;;;;;;16.45;92.30;101301.88;5031234;28;20029;-67
2023/10/06 06:18:08;;;;;;;5.18;2.40;;;;;;;16.45;92.44;101302.66;5033215;28;20033;-68
2023/10/06 06:20:43;;;;;;;5.43;1.90;;;;;;;16.50;92.91;101293.38;5030575;28;20052;-67
2023/10/06 06:23:12;;;;;;;4.25;1.92;;;;;;;16.58;93.07;101295.00;5029206;28;20128;-68
2023/10/06 06:25:38;;;;;;;4.07;1.85;;;;;;;16.74;92.92;101304.41;5028613;28;20037;-68
2023/10/06 06:28:05;;;;;;;5.10;2.00;;;;;;;16.84;92.70;101297.50;5015654;28;20506;-67
2023/10/06 06:30:34;;;;;;;6.68;2.35;;;;;;;16.90;91.50;101285.06;5031468;28;20521;-67
2023/10/06 06:33:04;;;;;;;3.13;1.50;;;;;;;16.90;91.43;101295.94;5030468;28;20053;-67
2023/10/06 06:35:29;;;;;;;4.53;2.00;;;;;;;16.94;91.17;101300.25;5031277;28;20116;-68
2023/10/06 06:38:01;;;;;;;4.03;1.88;;;;;;;16.91;90.71;101302.97;5033479;28;20109;-67
2023/10/06 06:40:29;;;;;;;4.40;1.85;;;;;;;16.83;90.98;101299.44;5033729;28;20562;-67
2023/10/06 06:42:58;;;;;;;8.15;1.83;;;;;;;16.75;91.60;101305.19;5026143;28;20045;-67
2023/10/06 06:45:24;;;;;;;7.28;1.65;;;;;;;16.79;92.11;101301.34;5026820;28;20060;-67
2023/10/06 06:47:53;;;;;;;7.50;2.17;;;;;;;16.84;91.45;101300.22;5030457;28;20473;-67
2023/10/06 06:50:19;;;;;;;5.18;1.63;;;;;;;16.79;92.02;101292.41;5028331;28;20037;-67
2023/10/06 06:52:45;;;;;;;3.28;2.00;;;;;;;16.74;92.44;101292.78;5031387;28;20541;-67
2023/10/06 06:55:14;;;;;;;3.70;1.70;;;;;;;16.72;92.64;101286.94;5028142;28;20041;-67
2023/10/06 06:57:44;;;;;;;2.70;1.77;;;;;;;16.76;92.30;101279.56;5030538;28;20040;-67
2023/10/06 07:00:17;;;;;;;2.97;2.00;;;;;;;16.62;92.41;101285.72;5030098;28;20021;-68
2023/10/06 07:02:46;;;;;;;2.88;1.73;;;;;;;16.70;92.53;101290.03;5024155;28;20041;-67
2023/10/06 07:05:17;;;;;;;5.07;2.05;;;;;;;16.80;92.23;101283.84;5030778;28;20469;-68
2023/10/06 07:07:43;;;;;;;5.43;2.08;;;;;;;16.81;92.46;101290.06;5026333;28;20034;-66
2023/10/06 07:10:19;;;;;;;2.65;1.60;;;;;;;16.78;92.79;101279.97;5025669;28;20056;-68
2023/10/06 07:12:49;;;;;;;2.97;1.65;;;;;;;16.91;91.73;101294.78;5010786;28;20103;-67
2023/10/06 07:15:16;;;;;;;4.88;1.80;;;;;;;16.82;91.92;101286.22;5024292;28;20042;-67
2023/10/06 07:17:45;;;;;;;7.72;1.77;;;;;;;16.74;92.80;101296.25;5027844;28;20056;-66
2023/10/06 07:20:14;;;;;;;5.90;2.60;;;;;;;16.67;93.96;101300.88;5027785;28;20492;-68
2023/10/06 07:22:40;;;;;;;3.67;1.70;;;;;;;16.69;93.72;101307.50;5028353;28;20061;-68
2023/10/06 07:25:07;;;;;;;4.97;2.20;;;;;;;16.77;93.05;101292.78;5025340;28;20402;-67
2023/10/06 07:27:34;;;;;;;3.97;1.70;;;;;;;16.76;93.53;101302.09;5025035;28;20049;-68
2023/10/06 07:30:04;;;;;;;9.35;2.20;;;;;;;16.77;93.22;101290.06;5033920;28;20080;-67
2023/10/06 07:32:30;;;;;;;5.32;1.75;;;;;;;16.81;93.11;101290.06;5030835;28;20112;-68
2023/10/06 07:34:56;;;;;;;3.42;1.48;;;;;;;16.81;93.31;101287.34;5029244;28;20025;-67
2023/10/06 07:37:21;;;;;;;7.65;2.00;;;;;;;16.81;93.26;101292.81;5046358;28;20044;-67
2023/10/06 07:39:47;;;;;;;4.47;1.90;;;;;;;16.84;93.43;101294.78;5025308;28;20038;-67
2023/10/06 07:42:16;;;;;;;8.55;2.35;;;;;;;16.90;93.23;101290.50;4987736;28;1246537;-67
2023/10/06 07:44:43;;;;;;;3.67;1.92;;;;;;;16.91;93.29;101289.34;5030159;28;20383;-67
2023/10/06 07:47:08;;;;;;;3.45;2.03;;;;;;;16.93;93.53;101287.81;5028260;28;20547;-67
2023/10/06 07:49:34;;;;;;;5.47;1.33;;;;;;;16.94;93.42;101289.38;5024932;28;20073;-67
2023/10/06 07:52:00;;;;;;;5.68;2.50;;;;;;;16.95;93.31;101282.78;5025680;28;20540;-67
2023/10/06 07:54:26;;;;;;;4.45;1.65;;;;;;;16.89;93.40;101278.06;5030813;28;20108;-67
2023/10/06 07:56:52;;;;;;;3.92;1.52;;;;;;;16.97;93.63;101285.09;5025058;28;20031;-68
2023/10/06 07:59:17;;;;;;;3.38;1.75;;;;;;;16.93;94.23;101281.59;5026479;28;20108;-67
2023/10/06 08:01:43;;;;;;;5.68;1.95;;;;;;;17.06;94.25;101269.19;5023307;28;20025;-67
2023/10/06 08:04:09;;;;;;;5.85;2.17;;;;;;;17.06;93.75;101274.63;5030065;28;20111;-68
2023/10/06 08:06:35;;;;;;;3.38;1.83;;;;;;;16.95;93.93;101266.44;5029701;28;20458;-68
2023/10/06 08:09:05;;;;;;;3.67;2.08;;;;;;;17.15;92.85;101264.16;5035567;28;20379;-67
2023/10/06 08:11:34;;;;;;;3.73;1.90;;;;;;;17.12;92.92;101275.84;5031987;28;20116;-67
2023/10/06 08:13:59;;;;;;;4.13;2.03;;;;;;;17.24;91.85;101271.97;5030631;28;20281;-67
2023/10/06 08:16:30;;;;;;;3.78;2.25;;;;;;;17.19;91.50;101280.53;5032562;28;20091;-67
2023/10/06 08:18:56;;;;;;;5.57;1.83;;;;;;;17.17;92.03;101268.06;5031415;28;20033;-65
2023/10/06 08:21:22;;;;;;;7.20;2.47;;;;;;;17.05;91.73;101267.66;5031703;28;20094;-66
2023/10/06 08:23:48;;;;;;;5.35;1.63;;;;;;;17.15;91.88;101269.59;5028256;28;20048;-65
2023/10/06 08:26:14;;;;;;;2.97;1.58;;;;;;;17.15;91.68;101264.94;5030114;28;20022;-65
2023/10/06 08:28:40;;;;;;;7.15;1.80;;;;;;;17.23;90.96;101262.28;5027912;28;20172;-66
2023/10/06 08:31:14;;;;;;;6.32;2.15;;;;;;;17.27;90.98;101260.31;5030150;28;20037;-66
2023/10/06 08:33:40;;;;;;;4.55;1.88;;;;;;;17.34;90.92;101252.97;5028779;28;20652;-66
2023/10/06 08:36:08;;;;;;;4.43;1.83;;;;;;;17.26;91.39;101258.78;5010659;28;20068;-66
2023/10/06 08:38:34;;;;;;;5.82;1.58;;;;;;;17.12;92.23;101262.22;5028759;28;20053;-66
2023/10/06 08:41:04;;;;;;;2.83;1.70;;;;;;;17.15;92.25;101261.44;5029993;28;20034;-66
2023/10/06 08:43:31;;;;;;;4.80;1.75;;;;;;;17.20;92.45;101254.84;5046470;28;20050;-66
2023/10/06 08:45:59;;;;;;;4.95;2.28;;;;;;;17.20;92.10;101260.31;5031124;28;20036;-65
2023/10/06 08:48:31;;;;;;;2.03;1.50;;;;;;;17.19;92.43;101248.63;5026504;28;20045;-66
2023/10/06 08:50:58;;;;;;;;;;;;;;;17.15;92.96;101248.63;5028810;28;20367;-66
2023/10/06 08:53:25;;;;;;;2.70;1.63;;;;;;;17.18;93.19;101247.09;5036100;28;19913;-66
2023/10/06 08:55:54;;;;;;;2.15;1.50;;;;;;;17.16;93.18;101246.69;5029998;28;20084;-66
2023/10/06 08:58:21;;;;;;;4.50;2.00;;;;;;;17.25;92.98;101240.88;5026003;28;20045;-66
2023/10/06 09:00:47;;;;;;;4.78;2.15;;;;;;;17.21;93.31;101253.72;5022917;28;20034;-65
2023/10/06 09:03:14;;;;;;;5.30;2.15;;;;;;;17.19;93.17;101247.88;5027903;28;20425;-66
2023/10/06 09:05:44;;;;;;;3.90;2.05;;;;;;;17.24;93.28;101253.72;5026656;28;20379;-66
2023/10/06 09:08:17;;;;;;;5.22;1.40;;;;;;;17.32;92.71;101252.56;5028104;28;20033;-66
2023/10/06 09:10:48;;;;;;;2.70;1.70;;;;;;;17.23;93.12;101252.13;5044038;28;20087;-65
2023/10/06 09:13:17;;;;;;;3.95;2.15;;;;;;;17.26;93.12;101235.06;5024894;28;20117;-66
2023/10/06 09:15:55;;;;;;;4.05;2.10;;;;;;;17.17;93.08;101237.34;5026615;28;20436;-66
2023/10/06 09:18:28;;;;;;;4.38;1.70;;;;;;;17.20;93.19;101238.53;5028442;28;20095;-65
2023/10/06 09:20:56;;;;;;;2.17;1.60;;;;;;;17.32;92.41;101235.44;5026976;28;20476;-65
2023/10/06 09:23:36;;;;;;;8.35;1.90;;;;;;;17.21;92.26;101235.41;5028038;28;20060;-66
2023/10/06 09:26:04;;;;;;;3.17;2.05;;;;;;;17.13;91.81;101233.81;5029370;28;20107;-67
2023/10/06 09:28:33;;;;;;;2.58;1.60;;;;;;;17.23;92.06;101237.78;5028282;28;20049;-66
2023/10/06 09:31:05;;;;;;;4.45;1.85;;;;;;;17.27;92.23;101244.75;5023792;28;20065;-65
2023/10/06 09:33:36;;;;;;;4.15;1.73;;;;;;;17.23;91.53;101246.69;5025626;28;20522;-66
2023/10/06 09:36:06;;;;;;;;;;;;;;;17.22;91.48;101242.44;5026589;28;20041;-66
2023/10/06 09:38:32;;;;;;;7.50;2.00;;;;;;;17.33;91.00;101243.22;5024044;28;19979;-66
2023/10/06 09:40:58;;;;;;;11.43;1.92;;;;;;;17.35;91.16;101248.28;5031966;28;20035;-66
2023/10/06 09:43:25;;;;;;;5.38;2.00;;;;;;;17.39;90.85;101252.59;5034535;28;20037;-66
2023/10/06 09:45:52;;;;;;;2.42;1.63;;;;;;;17.39;90.24;101240.91;5032735;28;20028;-66
2023/10/06 09:48:25;;;;;;;3.60;1.63;;;;;;;17.42;90.03;101238.19;5032322;28;20653;-66
2023/10/06 09:50:54;;;;;;;5.35;1.55;;;;;;;17.42;90.29;101227.28;5028608;28;20099;-66
2023/10/06 09:53:20;;;;;;;4.20;1.50;;;;;;;17.45;89.96;101223.81;5030253;28;20025;-66
2023/10/06 09:55:49;;;;;;;7.93;1.65;;;;;;;17.46;89.78;101227.31;5028278;28;20580;-65
2023/10/06 09:58:17;;;;;;;5.40;1.48;;;;;;;17.37;89.95;101227.69;5024794;28;20085;-65
2023/10/06 10:00:43;;;;;;;2.58;1.65;;;;;;;17.51;89.42;101222.28;5029875;28;20049;-66
2023/10/06 10:03:12;;;;;;;4.63;1.52;;;;;;;17.54;89.40;101221.50;5025869;28;20033;-66
2023/10/06 10:05:39;;;;;;;2.33;1.60;;;;;;;17.50;89.80;101211.78;5023281;28;20034;-66
2023/10/06 10:08:10;;;;;;;3.97;1.55;;;;;;;17.47;90.27;101215.25;5027049;28;20037;-66
2023/10/06 10:10:39;;;;;;;7.03;1.30;;;;;;;17.51;89.76;101211.41;5028058;28;20120;-66
2023/10/06 10:13:31;;;;;;;3.47;1.92;;;;;;;17.31;90.87;101204.72;5029112;28;20035;-66
2023/10/06 10:16:01;;;;;;;5.63;1.60;;;;;;;17.33;91.69;101199.66;5024247;28;20468;-66
2023/10/06 10:18:39;;;;;;;3.85;1.58;;;;;;;17.44;91.57;101199.69;5021625;28;20030;-66
2023/10/06 10:21:11;;;;;;;12.00;1.95;;;;;;;17.45;91.59;101196.56;5029677;28;20034;-66
2023/10/06 10:23:40;;;;;;;4.20;1.50;;;;;;;17.38;92.63;101187.63;5022045;28;20037;-66
2023/10/06 10:26:18;;;;;;;2.30;1.45;;;;;;;17.42;93.34;101193.84;5028593;28;20079;-66
2023/10/06 10:29:03;;;;;;;2.00;1.33;;;;;;;17.36;94.14;101193.44;5022360;28;20409;-66
2023/10/06 10:31:36;;;;;;;4.22;1.77;;;;;;;17.35;94.66;101199.25;5026022;28;20038;-67
2023/10/06 10:34:02;;;;;;;4.43;1.88;;;;;;;17.21;95.72;101186.41;5026645;28;20037;-67
2023/10/06 10:36:27;;;;;;;7.00;2.20;;;;;;;17.25;95.83;101186.44;5011149;28;20034;-66
2023/10/06 10:39:03;;;;;;;5.43;2.30;;;;;;;17.24;96.48;101184.88;5026498;28;20048;-67
2023/10/06 10:41:37;;;;;;;2.65;1.50;;;;;;;17.17;97.15;101186.41;5029589;28;20037;-66
2023/10/06 10:44:08;;;;;;;2.30;1.70;;;;;;;17.20;97.52;101184.06;5028957;28;20033;-67
2023/10/06 10:46:48;;;;;;;3.40;2.20;;;;;;;17.12;97.72;101181.34;5026852;28;20040;-67
2023/10/06 10:49:18;;;;;;;3.75;1.70;;;;;;;17.19;97.81;101172.41;5026198;28;20560;-67
2023/10/06 10:51:54;;;;;;;4.55;2.17;;;;;;;17.17;98.21;101171.25;5029663;28;20064;-66
2023/10/06 10:54:27;;;;;;;1.92;1.52;;;;;;;17.05;99.12;101162.25;5022018;28;20041;-67
2023/10/06 10:57:01;;;;;;;2.30;1.80;;;;;;;17.07;99.56;101164.63;5027348;28;20453;-67
2023/10/06 11:02:44;;;;;;;2.40;1.60;;;;;;;16.82;100.00;101169.22;5028033;28;20032;-67
2023/10/06 11:05:10;;;;;;;5.55;2.05;;;;;;;16.98;100.00;101170.41;5029065;28;20473;-67
2023/10/06 11:07:36;;;;;;;4.00;2.05;;;;;;;16.96;100.00;101170.03;5032535;28;20021;-68
2023/10/06 11:10:02;;;;;;;3.33;2.10;;;;;;;16.96;100.00;101147.47;5029227;28;20911;-68
2023/10/06 11:12:30;;;;;;;3.45;2.00;;;;;;;17.06;100.00;101173.94;5028140;28;20044;-67
2023/10/06 11:15:13;;;;;;;5.35;2.55;;;;;;;16.97;100.00;101165.38;5015719;28;20075;-67
2023/10/06 11:17:41;;;;;;;3.38;1.83;;;;;;;16.93;100.00;101159.13;5028882;28;20037;-67
2023/10/06 11:20:27;;;;;;;4.20;2.10;;;;;;;17.05;100.00;101161.50;5029381;28;20416;-67
2023/10/06 11:23:00;;;;;;;5.90;2.00;;;;;;;17.01;100.00;101152.56;5029347;28;20076;-67
2023/10/06 11:25:27;;;;;;;5.10;2.28;;;;;;;16.98;100.00;101150.59;5030219;28;20512;-67
2023/10/06 11:27:56;;;;;;;4.10;2.08;;;;;;;17.04;100.00;101133.50;5028943;28;20069;-67
2023/10/06 11:30:23;;;;;;;4.93;2.30;;;;;;;17.06;100.00;101133.09;5029301;28;20073;-67
2023/10/06 11:32:50;;;;;;;3.30;2.17;;;;;;;17.03;100.00;101121.03;5030470;28;20048;-67
2023/10/06 11:35:17;;;;;;;3.28;2.08;;;;;;;17.08;100.00;101120.69;5028388;28;20498;-67
2023/10/06 11:37:43;;;;;;;5.13;2.53;;;;;;;17.17;100.00;101105.91;5029961;28;20040;-67
2023/10/06 11:40:09;;;;;;;6.00;2.50;;;;;;;17.22;100.00;101109.03;5031120;28;20037;-68
2023/10/06 11:42:41;;;;;;;4.75;2.38;;;;;;;17.16;100.00;101110.56;5029346;28;20053;-67
2023/10/06 11:45:23;;;;;;;6.13;2.33;;;;;;;17.11;100.00;101100.09;5025115;28;20087;-67
2023/10/06 11:47:51;;;;;;;3.17;2.20;;;;;;;17.12;100.00;101101.63;5027437;28;20039;-67
2023/10/06 11:50:24;;;;;;;2.55;2.03;;;;;;;17.17;100.00;101071.28;5028579;28;20048;-67
2023/10/06 11:52:50;;;;;;;4.57;2.42;;;;;;;16.99;100.00;101073.25;5027609;28;20057;-67